createdAt,value
2019-03-01T00:02:29.205Z,11.30
2019-03-01T00:05:44.410Z,10.07
2019-03-01T00:08:16.163Z,12.03
2019-03-01T00:11:17.219Z,11.83
2019-03-01T00:14:11.654Z,11.27
2019-03-01T00:17:42.840Z,13.93
2019-03-01T00:20:51.549Z,10.67
2019-03-01T00:23:55.403Z,14.63
2019-03-01T00:26:56.584Z,12.77
2019-03-01T00:30:14.353Z,11.80
2019-03-01T00:33:11.655Z,10.33
2019-03-01T00:36:27.677Z,8.77
2019-03-01T00:39:59.073Z,10.30
2019-03-01T00:43:18.478Z,9.80
2019-03-01T00:45:47.877Z,14.73
2019-03-01T00:48:17.206Z,12.00
2019-03-01T00:50:46.535Z,13.87
2019-03-01T00:53:15.888Z,12.93
2019-03-01T00:55:45.212Z,15.67
2019-03-01T00:58:14.506Z,15.80
2019-03-01T01:00:46.416Z,13.83
2019-03-01T01:03:15.787Z,18.60
2019-03-01T01:05:45.152Z,13.63
2019-03-01T01:08:14.523Z,14.13
2019-03-01T01:10:43.929Z,15.37
2019-03-01T01:13:13.284Z,16.37
2019-03-01T01:15:42.631Z,14.73
2019-03-01T01:18:11.961Z,13.83
2019-03-01T01:20:41.305Z,13.80
2019-03-01T01:23:10.603Z,18.17
2019-03-01T01:25:39.947Z,14.27
2019-03-01T01:28:09.267Z,13.00
2019-03-01T01:30:38.632Z,18.17
2019-03-01T01:33:07.958Z,15.17
2019-03-01T01:35:37.310Z,15.03
2019-03-01T01:38:06.660Z,17.20
2019-03-01T01:40:35.981Z,15.20
2019-03-01T01:43:05.284Z,15.67
2019-03-01T01:45:34.612Z,17.47
2019-03-01T01:48:03.915Z,17.40
2019-03-01T01:50:33.271Z,21.53
2019-03-01T01:53:02.618Z,14.83
2019-03-01T01:55:31.907Z,17.60
2019-03-01T01:58:01.285Z,14.43
2019-03-01T02:00:30.602Z,13.40
2019-03-01T02:02:59.958Z,14.10
2019-03-01T02:05:29.400Z,15.13
2019-03-01T02:07:58.716Z,15.17
2019-03-01T02:10:28.045Z,17.00
2019-03-01T02:12:57.407Z,19.60
2019-03-01T02:15:26.795Z,15.90
2019-03-01T02:17:56.112Z,17.83
2019-03-01T02:20:25.437Z,13.00
2019-03-01T02:22:54.769Z,15.73
2019-03-01T02:25:24.068Z,21.80
2019-03-01T02:27:53.404Z,18.47
2019-03-01T02:30:24.673Z,15.77
2019-03-01T02:32:54.074Z,20.53
2019-03-01T02:35:24.960Z,16.17
2019-03-01T02:37:54.397Z,19.93
2019-03-01T02:40:23.699Z,15.03
2019-03-01T02:42:53.146Z,21.03
2019-03-01T02:45:22.908Z,20.83
2019-03-01T02:47:52.279Z,15.37
2019-03-01T02:50:21.778Z,13.47
2019-03-01T02:52:51.092Z,18.47
2019-03-01T02:55:20.912Z,14.93
2019-03-01T02:57:50.444Z,19.30
2019-03-01T03:00:24.321Z,15.90
2019-03-01T03:02:53.683Z,16.60
2019-03-01T03:05:23.060Z,18.30
2019-03-01T03:07:54.139Z,12.43
2019-03-01T03:10:23.478Z,19.50
2019-03-01T03:12:54.422Z,15.53
2019-03-01T03:15:32.066Z,17.07
2019-03-01T03:18:01.406Z,12.97
2019-03-01T03:20:30.719Z,16.47
2019-03-01T03:23:00.039Z,22.53
2019-03-01T03:25:29.350Z,18.97
2019-03-01T03:27:58.625Z,16.63
2019-03-01T03:30:28.113Z,17.60
2019-03-01T03:32:57.465Z,19.17
2019-03-01T03:35:26.781Z,21.87
2019-03-01T03:37:56.120Z,14.30
2019-03-01T03:40:25.447Z,18.53
2019-03-01T03:42:54.815Z,22.93
2019-03-01T03:45:24.199Z,19.07
2019-03-01T03:47:53.589Z,19.57
2019-03-01T03:50:22.905Z,21.47
2019-03-01T03:52:52.225Z,17.90
2019-03-01T03:55:21.631Z,21.00
2019-03-01T03:57:50.999Z,21.20
2019-03-01T04:00:20.473Z,19.83
2019-03-01T04:02:49.828Z,19.57
2019-03-01T04:05:19.156Z,20.00
2019-03-01T04:07:48.465Z,21.17
2019-03-01T04:10:17.764Z,21.83
2019-03-01T04:12:47.095Z,25.07
2019-03-01T04:15:16.626Z,19.30
2019-03-01T04:17:46.012Z,19.83
2019-03-01T04:20:16.591Z,25.57
2019-03-01T04:22:46.638Z,28.20
2019-03-01T04:25:15.933Z,23.03
2019-03-01T04:27:45.269Z,18.57
2019-03-01T04:30:16.214Z,20.53
2019-03-01T04:32:45.871Z,17.87
2019-03-01T04:35:15.443Z,23.87
2019-03-01T04:37:44.938Z,21.30
2019-03-01T04:40:14.940Z,21.70
2019-03-01T04:42:44.297Z,21.43
2019-03-01T04:45:13.907Z,22.30
2019-03-01T04:47:43.231Z,21.87
2019-03-01T04:50:12.687Z,18.20
2019-03-01T04:52:42.112Z,23.40
2019-03-01T04:55:22.689Z,24.97
2019-03-01T04:57:52.023Z,29.27
2019-03-01T05:00:22.693Z,24.03
2019-03-01T05:02:52.174Z,19.03
2019-03-01T05:05:21.588Z,22.37
2019-03-01T05:07:50.899Z,22.77
2019-03-01T05:10:20.220Z,23.00
2019-03-01T05:12:49.552Z,24.40
2019-03-01T05:15:20.421Z,24.53
2019-03-01T05:17:49.732Z,25.83
2019-03-01T05:20:19.100Z,23.50
2019-03-01T05:22:48.429Z,22.43
2019-03-01T05:25:17.776Z,20.47
2019-03-01T05:27:47.102Z,29.40
2019-03-01T05:30:16.523Z,28.80
2019-03-01T05:32:45.888Z,21.53
2019-03-01T05:35:15.258Z,20.97
2019-03-01T05:37:44.603Z,23.67
2019-03-01T05:40:13.971Z,25.47
2019-03-01T05:42:43.277Z,24.30
2019-03-01T05:45:17.821Z,24.43
2019-03-01T05:47:47.149Z,22.47
2019-03-01T05:50:16.550Z,24.63
2019-03-01T05:52:45.944Z,19.83
2019-03-01T05:55:16.001Z,23.97
2019-03-01T05:58:21.011Z,25.33
2019-03-01T06:00:50.663Z,35.13
2019-03-01T06:03:53.130Z,28.67
2019-03-01T06:06:43.684Z,25.23
2019-03-01T06:09:58.719Z,24.57
2019-03-01T06:13:23.846Z,27.40
2019-03-01T06:16:13.598Z,27.07
2019-03-01T06:19:20.908Z,26.60
2019-03-01T06:22:25.055Z,25.70
2019-03-01T06:25:43.840Z,28.50
2019-03-01T06:28:27.967Z,27.53
2019-03-01T06:31:32.626Z,32.83
2019-03-01T06:34:53.696Z,35.50
2019-03-01T06:38:02.854Z,31.00
2019-03-01T06:41:15.218Z,37.67
2019-03-01T06:44:23.627Z,34.63
2019-03-01T06:47:21.743Z,37.57
2019-03-01T06:49:54.721Z,44.53
2019-03-01T06:52:24.057Z,37.60
2019-03-01T06:54:53.420Z,38.93
2019-03-01T06:57:22.814Z,44.37
2019-03-01T06:59:52.149Z,46.23
2019-03-01T07:02:27.177Z,52.00
2019-03-01T07:04:56.542Z,52.47
2019-03-01T07:07:25.912Z,64.43
2019-03-01T07:09:55.227Z,69.43
2019-03-01T07:12:24.577Z,74.20
2019-03-01T07:14:53.928Z,83.50
2019-03-01T07:17:23.281Z,91.60
2019-03-01T07:19:52.627Z,108.57
2019-03-01T07:22:21.943Z,124.00
2019-03-01T07:24:51.338Z,118.00
2019-03-01T07:27:20.693Z,119.67
2019-03-01T07:29:50.012Z,122.57
2019-03-01T07:32:19.356Z,130.40
2019-03-01T07:34:48.871Z,133.27
2019-03-01T07:37:18.267Z,127.83
2019-03-01T07:39:47.673Z,132.00
2019-03-01T07:42:17.024Z,128.93
2019-03-01T07:44:46.485Z,129.63
2019-03-01T07:47:15.909Z,132.20
2019-03-01T07:49:45.242Z,130.53
2019-03-01T07:52:14.630Z,138.60
2019-03-01T07:54:44.091Z,143.50
2019-03-01T07:57:14.735Z,132.23
2019-03-01T07:59:44.502Z,141.97
2019-03-01T08:02:13.928Z,155.90
2019-03-01T08:04:43.252Z,141.13
2019-03-01T08:07:12.635Z,148.03
2019-03-01T08:09:44.870Z,141.00
2019-03-01T08:12:13.185Z,145.67
2019-03-01T08:14:42.517Z,154.97
2019-03-01T08:17:11.896Z,151.67
2019-03-01T08:19:41.284Z,147.73
2019-03-01T08:22:10.617Z,140.43
2019-03-01T08:24:42.753Z,148.40
2019-03-01T08:27:11.513Z,149.00
2019-03-01T08:29:40.896Z,145.40
2019-03-01T08:32:10.328Z,156.13
2019-03-01T08:34:39.665Z,149.80
2019-03-01T08:37:09.033Z,160.13
2019-03-01T08:39:39.819Z,159.47
2019-03-01T08:42:09.568Z,158.07
2019-03-01T08:44:39.004Z,153.00
2019-03-01T08:47:08.492Z,138.83
2019-03-01T08:49:38.000Z,134.43
2019-03-01T08:52:07.375Z,141.10
2019-03-01T08:54:36.778Z,136.63
2019-03-01T08:57:06.205Z,134.97
2019-03-01T08:59:35.552Z,146.73
2019-03-01T09:02:05.022Z,152.10
2019-03-01T09:04:38.060Z,165.47
2019-03-01T09:07:05.581Z,159.10
2019-03-01T09:09:34.903Z,176.03
2019-03-01T09:12:05.830Z,182.03
2019-03-01T09:14:35.221Z,189.40
2019-03-01T09:17:04.967Z,202.07
2019-03-01T09:19:34.362Z,206.27
2019-03-01T09:22:03.787Z,182.13
2019-03-01T09:24:33.214Z,203.80
2019-03-01T09:27:02.597Z,190.67
2019-03-01T09:29:41.022Z,195.33
2019-03-01T09:32:03.193Z,178.10
2019-03-01T09:34:33.039Z,180.87
2019-03-01T09:37:02.662Z,166.07
2019-03-01T09:39:32.749Z,173.87
2019-03-01T09:42:04.441Z,152.10
2019-03-01T09:44:34.662Z,160.27
2019-03-01T09:47:04.460Z,148.67
2019-03-01T09:49:33.866Z,156.63
2019-03-01T09:52:03.303Z,146.90
2019-03-01T09:54:32.677Z,141.27
2019-03-01T09:57:02.507Z,144.53
2019-03-01T09:59:32.742Z,139.07
2019-03-01T10:02:02.198Z,150.87
2019-03-01T10:04:31.600Z,150.10
2019-03-01T10:07:00.964Z,148.40
2019-03-01T10:09:30.358Z,145.43
2019-03-01T10:11:59.728Z,166.83
2019-03-01T10:14:29.162Z,157.73
2019-03-01T10:16:58.510Z,161.83
2019-03-01T10:19:27.891Z,159.60
2019-03-01T10:21:57.228Z,146.80
2019-03-01T10:24:26.554Z,160.07
2019-03-01T10:26:55.888Z,162.83
2019-03-01T10:29:25.216Z,148.50
2019-03-01T10:31:54.600Z,157.33
2019-03-01T10:34:23.989Z,165.23
2019-03-01T10:36:53.388Z,152.60
2019-03-01T10:39:22.759Z,145.30
2019-03-01T10:41:52.215Z,140.23
2019-03-01T10:44:21.530Z,131.40
2019-03-01T10:46:50.971Z,131.13
2019-03-01T10:49:20.351Z,119.00
2019-03-01T10:51:50.348Z,137.80
2019-03-01T10:54:19.754Z,119.17
2019-03-01T10:56:49.130Z,129.90
2019-03-01T10:59:18.492Z,121.33
2019-03-01T11:01:47.886Z,134.30
2019-03-01T11:04:17.292Z,125.07
2019-03-01T11:06:46.832Z,131.57
2019-03-01T11:09:16.198Z,139.30
2019-03-01T11:11:45.564Z,129.67
2019-03-01T11:14:14.960Z,127.00
2019-03-01T11:16:44.342Z,134.53
2019-03-01T11:19:13.657Z,132.47
2019-03-01T11:21:43.047Z,124.57
2019-03-01T11:24:12.433Z,125.27
2019-03-01T11:26:41.820Z,116.20
2019-03-01T11:29:11.245Z,120.47
2019-03-01T11:31:40.695Z,115.53
2019-03-01T11:34:10.145Z,110.73
2019-03-01T11:36:39.572Z,120.30
2019-03-01T11:39:09.552Z,120.90
2019-03-01T11:41:38.885Z,104.07
2019-03-01T11:44:08.267Z,107.17
2019-03-01T11:46:37.650Z,100.67
2019-03-01T11:49:07.144Z,103.03
2019-03-01T11:51:36.471Z,85.30
2019-03-01T11:54:06.133Z,84.80
2019-03-01T11:56:35.464Z,88.83
2019-03-01T11:59:04.866Z,83.77
2019-03-01T12:01:34.201Z,81.03
2019-03-01T12:04:03.837Z,85.17
2019-03-01T12:06:33.314Z,69.57
2019-03-01T12:09:07.823Z,69.47
2019-03-01T12:11:37.205Z,75.37
2019-03-01T12:14:06.787Z,69.10
2019-03-01T12:16:37.723Z,72.37
2019-03-01T12:19:07.180Z,60.50
2019-03-01T12:21:40.884Z,67.47
2019-03-01T12:24:10.432Z,62.87
2019-03-01T12:26:39.821Z,71.90
2019-03-01T12:29:09.303Z,58.93
2019-03-01T12:31:38.656Z,59.60
2019-03-01T12:34:08.074Z,60.33
2019-03-01T12:36:37.477Z,56.90
2019-03-01T12:39:09.904Z,51.33
2019-03-01T12:41:39.484Z,51.40
2019-03-01T12:44:09.259Z,55.97
2019-03-01T12:46:38.693Z,47.20
2019-03-01T12:49:08.234Z,47.50
2019-03-01T12:51:37.583Z,58.53
2019-03-01T12:54:06.989Z,54.50
2019-03-01T12:56:36.605Z,50.27
2019-03-01T12:59:05.974Z,52.00
2019-03-01T13:01:35.508Z,44.33
2019-03-01T13:04:04.989Z,45.60
2019-03-01T13:06:35.448Z,40.47
2019-03-01T13:09:11.907Z,38.93
2019-03-01T13:11:41.489Z,31.50
2019-03-01T13:14:10.864Z,28.03
2019-03-01T13:16:40.324Z,27.77
2019-03-01T13:19:09.844Z,32.47
2019-03-01T13:21:39.286Z,32.43
2019-03-01T13:24:08.834Z,48.87
2019-03-01T13:37:59.102Z,71.83
2019-03-01T13:40:08.690Z,84.27
2019-03-01T13:42:38.072Z,105.37
2019-03-01T13:45:08.465Z,109.57
2019-03-01T13:47:40.664Z,107.77
2019-03-01T13:50:09.837Z,107.43
2019-03-01T13:52:39.279Z,99.10
2019-03-01T13:55:09.014Z,90.47
2019-03-01T13:57:38.373Z,87.07
2019-03-01T14:00:09.856Z,74.00
2019-03-01T14:02:39.255Z,77.87
2019-03-01T14:05:09.279Z,74.77
2019-03-01T14:07:38.865Z,87.57
2019-03-01T14:10:10.272Z,76.27
2019-03-01T14:12:39.652Z,87.13
2019-03-01T14:15:11.472Z,97.03
2019-03-01T14:17:40.830Z,100.03
2019-03-01T14:20:19.162Z,103.10
2019-03-01T14:29:16.989Z,103.93
2019-03-01T14:31:46.448Z,103.90
2019-03-01T14:34:15.890Z,110.37
2019-03-01T14:36:45.212Z,111.93
2019-03-01T14:39:17.977Z,106.00
2019-03-01T14:41:47.314Z,104.37
2019-03-01T14:44:16.777Z,94.07
2019-03-01T14:46:46.088Z,88.13
2019-03-01T14:49:18.479Z,92.33
2019-03-01T14:51:46.971Z,77.03
2019-03-01T14:54:17.110Z,63.87
2019-03-01T14:56:56.316Z,75.57
2019-03-01T14:59:38.419Z,92.67
2019-03-01T15:02:47.353Z,86.67
2019-03-01T15:05:19.710Z,106.67
2019-03-01T15:07:48.004Z,97.70
2019-03-01T15:10:17.409Z,78.40
2019-03-01T15:12:46.829Z,75.60
2019-03-01T15:15:16.424Z,56.60
2019-03-01T15:17:45.806Z,44.73
2019-03-01T15:20:17.189Z,49.87
2019-03-01T15:22:48.709Z,43.70
2019-03-01T15:25:17.354Z,38.60
2019-03-01T15:27:50.539Z,44.37
2019-03-01T15:30:19.891Z,34.77
2019-03-01T15:32:49.227Z,34.63
2019-03-01T15:35:18.621Z,32.33
2019-03-01T15:37:48.006Z,33.13
2019-03-01T15:40:17.653Z,36.13
2019-03-01T15:42:47.039Z,33.13
2019-03-01T15:46:19.412Z,35.37
2019-03-01T15:48:48.813Z,30.07
2019-03-01T15:51:18.207Z,34.53
2019-03-01T15:53:47.608Z,29.70
2019-03-01T15:56:16.935Z,28.10
2019-03-01T15:58:46.713Z,31.30
2019-03-01T16:01:16.217Z,34.03
2019-03-01T16:03:45.514Z,30.63
2019-03-01T16:06:20.098Z,28.63
2019-03-01T16:08:48.115Z,31.20
2019-03-01T16:11:17.096Z,31.00
2019-03-01T16:13:49.089Z,29.37
2019-03-01T16:16:17.534Z,27.87
2019-03-01T16:18:46.988Z,27.50
2019-03-01T16:21:16.342Z,26.27
2019-03-01T16:23:45.718Z,29.33
2019-03-01T16:26:15.084Z,27.07
2019-03-01T16:28:44.463Z,32.63
2019-03-01T16:31:13.786Z,29.57
2019-03-01T16:33:43.156Z,27.73
2019-03-01T16:36:31.489Z,26.27
2019-03-01T16:39:00.887Z,25.17
2019-03-01T16:41:30.259Z,28.17
2019-03-01T16:44:01.265Z,25.80
2019-03-01T16:46:31.470Z,29.47
2019-03-01T16:49:01.678Z,28.23
2019-03-01T16:51:31.030Z,25.70
2019-03-01T16:54:00.576Z,25.37
2019-03-01T16:56:29.895Z,30.13
2019-03-01T16:59:00.337Z,25.57
2019-03-01T17:01:54.369Z,28.33
2019-03-01T17:04:27.159Z,26.17
2019-03-01T17:06:54.800Z,26.23
2019-03-01T17:12:54.985Z,22.10
2019-03-01T17:15:24.392Z,24.93
2019-03-01T17:17:53.888Z,26.60
2019-03-01T17:20:23.304Z,26.73
2019-03-01T17:22:52.644Z,22.70
2019-03-01T17:25:23.362Z,25.87
2019-03-01T17:27:53.041Z,22.73
2019-03-01T17:30:22.946Z,23.13
2019-03-01T17:32:52.493Z,27.63
2019-03-01T17:35:21.871Z,26.33
2019-03-01T17:37:51.306Z,24.60
2019-03-01T17:40:20.717Z,26.57
2019-03-01T17:42:53.230Z,26.60
2019-03-01T17:45:22.242Z,27.47
2019-03-01T17:47:51.696Z,25.17
2019-03-01T17:50:21.122Z,22.23
2019-03-01T17:52:50.628Z,23.30
2019-03-01T17:55:19.987Z,23.67
2019-03-01T17:57:50.261Z,18.63
2019-03-01T18:00:25.338Z,24.33
2019-03-01T18:02:55.589Z,22.13
2019-03-01T18:05:24.973Z,19.73
2019-03-01T18:11:45.845Z,24.00
2019-03-01T18:14:15.159Z,16.33
2019-03-01T18:17:16.592Z,15.63
2019-03-01T18:21:04.078Z,16.10
2019-03-01T18:23:34.240Z,15.50
2019-03-01T18:26:04.530Z,15.43
2019-03-01T18:28:33.855Z,12.30
2019-03-01T18:31:03.285Z,18.83
2019-03-01T18:33:32.636Z,16.73
2019-03-01T18:36:05.071Z,14.53
2019-03-01T18:38:34.417Z,12.37
2019-03-01T18:41:03.906Z,12.50
2019-03-01T18:43:33.452Z,12.37
2019-03-01T18:46:05.262Z,12.77
2019-03-01T18:48:34.680Z,13.50
2019-03-01T18:51:06.887Z,11.40
2019-03-01T18:53:35.186Z,16.70
2019-03-01T18:56:04.513Z,13.07
2019-03-01T18:58:33.913Z,14.60
2019-03-01T19:01:03.451Z,14.07
2019-03-01T19:03:32.796Z,15.13
2019-03-01T19:06:02.131Z,17.57
2019-03-01T19:08:31.493Z,15.93
2019-03-01T19:11:02.929Z,14.87
2019-03-01T19:13:31.932Z,13.40
2019-03-01T19:16:01.263Z,12.43
2019-03-01T19:18:30.623Z,15.57
2019-03-01T19:21:00.015Z,16.73
2019-03-01T19:23:32.300Z,13.43
2019-03-01T19:26:01.758Z,13.60
2019-03-01T19:28:31.368Z,13.13
2019-03-01T19:31:00.778Z,12.77
2019-03-01T19:33:30.126Z,17.33
2019-03-01T19:36:00.689Z,14.70
2019-03-01T19:38:30.636Z,17.47
2019-03-01T19:41:00.087Z,13.30
2019-03-01T19:43:29.502Z,11.63
2019-03-01T19:45:58.895Z,15.40
2019-03-01T19:48:28.345Z,19.73
2019-03-01T19:50:58.488Z,15.73
2019-03-01T19:53:28.825Z,13.97
2019-03-01T19:55:58.277Z,15.37
2019-03-01T19:58:27.708Z,15.87
2019-03-01T20:01:02.626Z,17.27
2019-03-01T20:03:32.053Z,15.03
2019-03-01T20:06:04.448Z,15.40
2019-03-01T20:08:32.703Z,18.27
2019-03-01T20:11:02.146Z,15.90
2019-03-01T20:13:31.512Z,14.03
2019-03-01T20:16:00.906Z,12.73
2019-03-01T20:18:30.257Z,18.30
2019-03-01T20:20:59.713Z,13.23
2019-03-01T20:23:29.535Z,13.90
2019-03-01T20:26:00.064Z,11.53
2019-03-01T20:28:29.405Z,14.00
2019-03-01T20:31:01.604Z,14.03
2019-03-01T20:33:29.824Z,16.40
2019-03-01T20:35:59.215Z,12.90
2019-03-01T20:38:28.590Z,16.53
2019-03-01T20:40:59.859Z,11.60
2019-03-01T20:43:29.253Z,13.47
2019-03-01T20:45:58.601Z,11.60
2019-03-01T20:48:28.907Z,10.90
2019-03-01T20:50:59.204Z,10.60
2019-03-01T20:53:28.563Z,10.37
2019-03-01T20:55:57.901Z,13.80
2019-03-01T20:58:27.278Z,9.40
2019-03-01T21:00:58.853Z,8.27
2019-03-01T21:03:29.937Z,13.67
2019-03-01T21:06:01.641Z,10.27
2019-03-01T21:08:30.592Z,8.57
2019-03-01T21:10:59.949Z,8.17
2019-03-01T21:13:29.343Z,9.13
2019-03-01T21:15:58.808Z,7.00
2019-03-01T21:18:30.763Z,9.97
2019-03-01T21:20:59.227Z,10.77
2019-03-01T21:23:28.600Z,9.07
2019-03-01T21:25:58.042Z,9.37
2019-03-01T21:28:27.495Z,7.80
2019-03-01T21:30:59.093Z,8.00
2019-03-01T21:33:28.312Z,7.07
2019-03-01T21:35:57.751Z,6.73
2019-03-01T21:38:27.088Z,10.60
2019-03-01T21:40:56.580Z,8.97
2019-03-01T21:43:30.610Z,8.20
2019-03-01T21:45:59.897Z,14.23
2019-03-01T21:48:29.250Z,11.87
2019-03-01T21:50:58.569Z,14.80
2019-03-01T21:53:27.957Z,13.50
2019-03-01T21:56:00.661Z,13.70
2019-03-01T21:58:28.340Z,14.63
2019-03-01T22:00:57.672Z,11.97
2019-03-01T22:03:28.280Z,16.47
2019-03-01T22:05:58.299Z,15.13
2019-03-01T22:08:27.698Z,11.73
2019-03-01T22:10:57.072Z,11.87
2019-03-01T22:13:26.400Z,21.33
2019-03-01T22:15:57.685Z,14.60
2019-03-01T22:18:26.959Z,13.63
2019-03-01T22:20:56.421Z,12.03
2019-03-01T22:23:25.771Z,10.47
2019-03-01T22:25:55.621Z,13.40
2019-03-01T22:28:24.979Z,13.07
2019-03-01T22:30:56.572Z,10.67
2019-03-01T22:33:25.478Z,12.30
2019-03-01T22:35:54.865Z,12.13
2019-03-01T22:38:25.046Z,11.23
2019-03-01T22:40:54.540Z,14.50
2019-03-01T22:43:26.223Z,11.30
2019-03-01T22:45:54.911Z,19.13
2019-03-01T22:48:24.356Z,12.97
2019-03-01T22:50:53.726Z,12.10
2019-03-01T22:53:23.161Z,12.93
2019-03-01T22:55:52.495Z,14.67
2019-03-01T22:58:21.841Z,15.57
2019-03-01T23:01:05.792Z,16.03
2019-03-01T23:03:35.159Z,16.47
2019-03-01T23:06:04.536Z,16.07
2019-03-01T23:08:35.538Z,14.97
2019-03-01T23:11:05.070Z,14.00
2019-03-01T23:13:34.428Z,18.83
2019-03-01T23:16:03.743Z,14.53
2019-03-01T23:18:33.121Z,13.67
2019-03-01T23:21:02.476Z,16.40
2019-03-01T23:23:31.881Z,17.67
2019-03-01T23:26:01.205Z,21.40
2019-03-01T23:28:30.642Z,16.60
2019-03-01T23:31:00.503Z,18.30
2019-03-01T23:33:31.552Z,21.33
2019-03-01T23:36:01.823Z,18.43
2019-03-01T23:38:31.205Z,17.00
2019-03-01T23:41:00.558Z,18.50
2019-03-01T23:43:32.957Z,16.97
2019-03-01T23:46:02.276Z,19.27
2019-03-01T23:48:31.781Z,20.57
2019-03-01T23:51:01.177Z,20.30
2019-03-01T23:53:30.925Z,17.40
2019-03-01T23:56:01.643Z,20.83
2019-03-01T23:58:30.975Z,21.47
